Time;durP1;ratioP1;P1;durP2;ratioP2;P2;SDS_P1;SDS_P2;PMS_P1;PMS_P2;Temp;Humidity;BMP_temperature;BMP_pressure;BME280_temperature;BME280_humidity;BME280_pressure;Samples;Min_cycle;Max_cycle;Signal;HPM_P1;HPM_P2
2023/07/03 00:02:16;;;;;;;9.52;3.47;;;15.90;99.90;;;;;;5025629;28;20323;-64
2023/07/03 00:04:45;;;;;;;12.40;3.20;;;15.90;99.90;;;;;;5051828;28;20670;-64
2023/07/03 00:07:14;;;;;;;5.30;3.25;;;15.90;99.90;;;;;;5060093;28;20196;-64
2023/07/03 00:09:41;;;;;;;5.65;3.25;;;15.90;99.90;;;;;;5059994;28;20223;-65
2023/07/03 00:12:09;;;;;;;6.88;3.78;;;15.90;99.90;;;;;;5047871;28;20196;-64
2023/07/03 00:14:36;;;;;;;8.05;3.80;;;15.20;99.90;;;;;;5054857;28;20212;-64
2023/07/03 00:17:03;;;;;;;7.65;3.47;;;15.90;99.90;;;;;;5029932;28;20223;-64
2023/07/03 00:19:31;;;;;;;11.00;3.40;;;15.90;99.90;;;;;;5057447;28;20197;-64
2023/07/03 00:22:00;;;;;;;6.03;3.55;;;15.70;99.90;;;;;;5051845;28;20224;-64
2023/07/03 00:24:28;;;;;;;9.02;3.90;;;15.90;99.90;;;;;;5059227;28;20255;-65
2023/07/03 00:26:55;;;;;;;7.13;3.70;;;16.20;99.90;;;;;;5053786;28;20205;-64
2023/07/03 00:29:22;;;;;;;10.63;3.65;;;15.90;99.90;;;;;;5066519;28;20246;-64
2023/07/03 00:31:49;;;;;;;10.07;3.80;;;15.90;99.90;;;;;;5027889;28;21035;-64
2023/07/03 00:34:16;;;;;;;11.75;3.58;;;15.90;99.90;;;;;;5060937;28;20201;-64
2023/07/03 00:36:44;;;;;;;8.10;3.47;;;15.90;99.90;;;;;;5063067;28;20254;-64
2023/07/03 00:39:11;;;;;;;13.30;4.20;;;15.90;99.90;;;;;;5064219;28;20200;-64
2023/07/03 00:41:38;;;;;;;8.50;4.28;;;16.00;99.90;;;;;;5053712;28;20220;-65
2023/07/03 00:44:10;;;;;;;12.75;4.20;;;15.90;99.90;;;;;;5057034;28;20951;-64
2023/07/03 00:46:37;;;;;;;11.75;3.70;;;15.90;99.90;;;;;;5058966;28;20196;-64
2023/07/03 00:49:04;;;;;;;8.55;3.55;;;15.90;99.90;;;;;;5037509;28;20704;-64
2023/07/03 00:51:32;;;;;;;10.07;3.53;;;15.90;99.90;;;;;;5062951;28;20232;-64
2023/07/03 00:54:00;;;;;;;9.95;3.78;;;15.90;99.90;;;;;;5056042;28;20227;-64
2023/07/03 00:56:27;;;;;;;6.00;3.70;;;15.90;99.90;;;;;;5062049;28;20204;-64
2023/07/03 00:58:54;;;;;;;8.80;3.88;;;15.80;99.90;;;;;;5043114;28;20708;-64
2023/07/03 01:01:29;;;;;;;8.60;3.88;;;15.80;99.90;;;;;;5061665;28;20657;-64
2023/07/03 01:04:01;;;;;;;9.45;3.80;;;15.80;99.90;;;;;;5029154;28;20975;-64
2023/07/03 01:06:36;;;;;;;8.32;3.85;;;15.80;99.90;;;;;;5055527;28;20227;-64
2023/07/03 01:09:04;;;;;;;9.70;3.30;;;15.90;99.90;;;;;;5052995;28;20215;-64
2023/07/03 01:11:32;;;;;;;9.05;3.70;;;15.90;99.90;;;;;;5061418;28;21067;-64
2023/07/03 01:14:01;;;;;;;7.13;3.45;;;15.80;99.90;;;;;;5033645;28;20212;-64
2023/07/03 01:16:30;;;;;;;7.15;3.90;;;15.50;99.90;;;;;;5048242;28;20325;-64
2023/07/03 01:18:59;;;;;;;8.40;3.80;;;15.60;99.90;;;;;;5015776;28;20239;-63
2023/07/03 01:21:36;;;;;;;7.20;3.38;;;15.90;99.90;;;;;;5061133;28;20201;-64
2023/07/03 01:24:11;;;;;;;8.65;3.90;;;15.90;99.90;;;;;;5052300;28;20248;-64
2023/07/03 01:26:42;;;;;;;11.82;3.67;;;15.90;99.90;;;;;;5057159;28;20192;-64
2023/07/03 01:29:12;;;;;;;14.15;4.32;;;15.90;99.90;;;;;;5047533;28;20211;-64
2023/07/03 01:31:39;;;;;;;8.45;3.50;;;15.80;99.90;;;;;;5058105;28;20204;-64
2023/07/03 01:34:09;;;;;;;14.48;3.88;;;15.80;99.90;;;;;;5035251;28;20224;-64
2023/07/03 01:36:37;;;;;;;11.07;3.53;;;15.80;99.90;;;;;;5047660;28;20212;-64
2023/07/03 01:39:06;;;;;;;14.77;3.90;;;15.80;99.90;;;;;;5046955;28;20209;-64
2023/07/03 01:41:34;;;;;;;8.90;3.40;;;15.80;99.90;;;;;;5057978;28;20662;-64
2023/07/03 01:44:02;;;;;;;8.18;3.63;;;15.90;99.90;;;;;;5048037;28;20246;-64
2023/07/03 01:46:29;;;;;;;8.90;4.05;;;15.80;99.90;;;;;;5056847;28;20265;-64
2023/07/03 01:48:56;;;;;;;7.57;3.88;;;15.80;99.90;;;;;;5038576;28;20338;-64
2023/07/03 01:51:33;;;;;;;10.57;3.92;;;15.80;99.90;;;;;;5047451;28;20208;-64
2023/07/03 01:54:07;;;;;;;10.93;4.78;;;15.70;99.90;;;;;;5039975;28;20212;-64
2023/07/03 01:56:39;;;;;;;6.63;3.80;;;15.70;99.90;;;;;;5046637;28;20200;-65
2023/07/03 01:59:11;;;;;;;8.15;4.07;;;15.70;99.90;;;;;;5032843;28;20673;-64
2023/07/03 02:01:47;;;;;;;8.95;4.18;;;15.80;99.90;;;;;;5049137;28;20223;-64
2023/07/03 02:04:24;;;;;;;7.53;3.40;;;15.60;99.90;;;;;;5051547;28;20215;-64
2023/07/03 02:06:52;;;;;;;13.15;4.60;;;15.70;99.90;;;;;;5034075;28;20741;-64
2023/07/03 02:09:20;;;;;;;8.23;4.13;;;15.70;99.90;;;;;;5052785;28;20196;-64
2023/07/03 02:11:48;;;;;;;6.32;3.80;;;15.70;99.90;;;;;;5049912;28;20936;-64
2023/07/03 02:14:17;;;;;;;12.82;3.88;;;15.70;99.90;;;;;;5044590;28;20196;-64
2023/07/03 02:16:46;;;;;;;9.63;3.58;;;15.60;99.90;;;;;;5043797;28;20213;-64
2023/07/03 02:19:14;;;;;;;9.60;3.90;;;15.60;99.90;;;;;;5054812;28;20220;-64
2023/07/03 02:21:43;;;;;;;8.45;3.83;;;15.60;99.90;;;;;;5030463;28;20776;-64
2023/07/03 02:24:11;;;;;;;7.88;3.67;;;15.40;99.90;;;;;;5052167;28;20933;-64
2023/07/03 02:26:37;;;;;;;10.40;4.20;;;15.60;99.90;;;;;;5060337;28;20199;-64
2023/07/03 02:29:04;;;;;;;9.90;4.10;;;15.60;99.90;;;;;;5059005;28;20207;-64
2023/07/03 02:31:32;;;;;;;11.23;4.40;;;15.60;99.90;;;;;;5040968;28;20227;-64
2023/07/03 02:33:59;;;;;;;7.70;3.67;;;15.60;99.90;;;;;;5049691;28;20239;-64
2023/07/03 02:36:29;;;;;;;6.63;3.58;;;15.60;99.90;;;;;;5059302;28;20206;-64
2023/07/03 02:38:56;;;;;;;11.88;4.10;;;15.50;99.90;;;;;;5041870;28;20208;-64
2023/07/03 02:41:23;;;;;;;12.20;4.47;;;15.60;99.90;;;;;;5053683;28;20215;-64
2023/07/03 02:43:50;;;;;;;7.82;3.80;;;15.60;99.90;;;;;;5058379;28;20588;-64
2023/07/03 02:46:17;;;;;;;11.68;4.50;;;15.60;99.90;;;;;;5038723;28;20204;-64
2023/07/03 02:48:46;;;;;;;10.85;3.35;;;15.60;99.90;;;;;;5059971;28;20200;-64
2023/07/03 02:51:12;;;;;;;14.65;4.32;;;15.60;99.90;;;;;;5053884;28;20954;-64
2023/07/03 02:53:39;;;;;;;16.35;4.50;;;15.60;99.90;;;;;;5038565;28;20222;-64
2023/07/03 02:56:06;;;;;;;7.80;3.92;;;15.60;99.90;;;;;;5054858;28;20739;-64
2023/07/03 02:58:33;;;;;;;13.80;3.75;;;15.60;99.90;;;;;;5061411;28;20228;-64
2023/07/03 03:01:01;;;;;;;12.18;4.20;;;15.60;99.90;;;;;;5038453;28;20729;-64
2023/07/03 03:03:27;;;;;;;10.40;4.40;;;15.60;99.90;;;;;;5054877;28;20868;-64
2023/07/03 03:05:56;;;;;;;9.43;3.65;;;15.70;99.90;;;;;;5049072;28;20211;-64
2023/07/03 03:08:23;;;;;;;11.13;4.00;;;15.60;99.90;;;;;;5038348;28;20286;-64
2023/07/03 03:10:49;;;;;;;8.20;3.78;;;15.60;99.90;;;;;;5064926;28;20192;-64
2023/07/03 03:13:16;;;;;;;10.20;4.07;;;16.50;99.90;;;;;;5048680;28;20204;-64
2023/07/03 03:15:43;;;;;;;10.43;4.43;;;15.60;99.90;;;;;;5042117;28;20224;-64
2023/07/03 03:18:10;;;;;;;13.90;4.38;;;15.70;99.90;;;;;;5050025;28;20222;-64
2023/07/03 03:20:37;;;;;;;15.90;4.30;;;15.70;99.90;;;;;;5056433;28;20686;-64
2023/07/03 03:23:05;;;;;;;11.05;4.10;;;15.60;99.90;;;;;;5038301;28;20232;-65
2023/07/03 03:25:33;;;;;;;8.98;3.80;;;15.60;99.90;;;;;;5063921;28;20195;-64
2023/07/03 03:28:00;;;;;;;14.05;4.30;;;15.60;99.90;;;;;;5057854;28;20204;-64
2023/07/03 03:30:26;;;;;;;12.75;4.28;;;15.60;99.90;;;;;;5053576;28;20211;-65
2023/07/03 03:32:53;;;;;;;11.88;4.18;;;15.60;99.90;;;;;;5026823;28;20200;-64
2023/07/03 03:35:20;;;;;;;12.02;3.67;;;15.60;99.90;;;;;;5049343;28;20220;-64
2023/07/03 03:37:47;;;;;;;12.68;4.32;;;15.60;99.90;;;;;;5054794;28;20213;-64
2023/07/03 03:40:15;;;;;;;9.25;4.22;;;15.60;99.90;;;;;;5031573;28;20216;-64
2023/07/03 03:42:42;;;;;;;8.50;3.97;;;15.60;99.90;;;;;;5049164;28;20528;-64
2023/07/03 03:45:10;;;;;;;14.32;4.32;;;15.70;99.90;;;;;;5059984;28;20200;-64
2023/07/03 03:47:36;;;;;;;10.40;3.95;;;15.20;99.90;;;;;;5046434;28;20211;-64
2023/07/03 03:50:04;;;;;;;13.40;3.83;;;15.70;99.90;;;;;;5061704;28;20215;-65
2023/07/03 03:52:30;;;;;;;12.23;3.75;;;15.70;99.90;;;;;;5040457;28;20224;-65
2023/07/03 03:54:58;;;;;;;10.38;4.13;;;15.70;99.90;;;;;;5041243;28;20219;-64
2023/07/03 03:57:26;;;;;;;10.35;3.85;;;15.70;99.90;;;;;;5059373;28;20219;-65
2023/07/03 03:59:53;;;;;;;12.43;3.65;;;15.70;99.90;;;;;;5058188;28;20228;-65
2023/07/03 04:02:20;;;;;;;16.08;4.53;;;15.60;99.90;;;;;;5038778;28;20220;-65
2023/07/03 04:04:47;;;;;;;12.35;4.38;;;15.70;99.90;;;;;;5040427;28;21713;-65
2023/07/03 04:07:13;;;;;;;11.93;4.70;;;15.70;99.90;;;;;;5036247;28;20243;-64
2023/07/03 04:09:40;;;;;;;13.43;4.22;;;15.70;99.90;;;;;;5030616;28;20235;-64
2023/07/03 04:12:08;;;;;;;12.35;4.30;;;15.70;99.90;;;;;;5038480;28;20266;-64
2023/07/03 04:14:37;;;;;;;11.45;3.35;;;15.70;99.90;;;;;;5047933;28;20351;-64
2023/07/03 04:17:05;;;;;;;13.85;4.47;;;15.70;99.90;;;;;;5044575;28;20216;-64
2023/07/03 04:19:32;;;;;;;11.07;3.85;;;15.70;99.90;;;;;;5027031;28;20220;-65
2023/07/03 04:21:58;;;;;;;10.38;3.72;;;15.70;99.90;;;;;;5025830;28;20223;-64
2023/07/03 04:24:25;;;;;;;11.75;3.75;;;15.80;99.90;;;;;;5031185;28;20228;-64
2023/07/03 04:26:54;;;;;;;10.10;3.70;;;15.80;99.90;;;;;;5032452;28;20389;-64
2023/07/03 04:29:21;;;;;;;11.57;3.50;;;15.80;99.90;;;;;;5050813;28;20327;-64
2023/07/03 04:31:49;;;;;;;10.35;3.40;;;15.80;99.90;;;;;;5054807;28;20490;-64
2023/07/03 04:34:16;;;;;;;13.00;3.97;;;15.80;99.90;;;;;;5040891;28;20200;-64
2023/07/03 04:36:44;;;;;;;17.65;3.63;;;15.80;99.90;;;;;;5025912;28;20220;-64
2023/07/03 04:39:10;;;;;;;11.90;3.75;;;15.80;99.90;;;;;;5046621;28;21114;-63
2023/07/03 04:41:37;;;;;;;7.68;3.38;;;15.80;99.90;;;;;;5029967;28;21289;-64
2023/07/03 04:44:04;;;;;;;10.90;3.67;;;15.80;99.90;;;;;;5051395;28;20232;-64
2023/07/03 04:46:31;;;;;;;10.55;3.85;;;15.80;99.90;;;;;;5054578;28;20774;-64
2023/07/03 04:49:03;;;;;;;11.00;3.67;;;15.80;99.90;;;;;;5060577;28;20740;-64
2023/07/03 04:51:30;;;;;;;12.30;4.30;;;15.80;99.90;;;;;;5045676;28;20314;-64
2023/07/03 04:53:58;;;;;;;11.10;3.80;;;15.80;99.90;;;;;;5044809;28;20586;-64
2023/07/03 04:56:25;;;;;;;12.65;4.32;;;15.90;99.90;;;;;;5038157;28;20852;-64
2023/07/03 04:58:52;;;;;;;10.50;4.00;;;15.90;99.90;;;;;;5048954;28;20212;-64
2023/07/03 05:01:19;;;;;;;19.30;4.05;;;15.90;99.90;;;;;;5049497;28;20204;-64
2023/07/03 05:03:46;;;;;;;15.90;4.28;;;16.00;99.90;;;;;;5044096;28;20250;-64
2023/07/03 05:06:14;;;;;;;12.38;4.07;;;16.00;99.90;;;;;;5032734;28;20551;-64
2023/07/03 05:08:41;;;;;;;10.82;3.90;;;16.00;99.90;;;;;;5034088;28;20701;-64
2023/07/03 05:11:08;;;;;;;14.70;4.60;;;16.00;99.90;;;;;;5031334;28;20756;-64
2023/07/03 05:13:35;;;;;;;14.48;3.90;;;16.00;99.90;;;;;;5022129;28;20209;-64
2023/07/03 05:16:02;;;;;;;10.18;3.42;;;16.10;99.90;;;;;;5051823;28;20195;-64
2023/07/03 05:18:28;;;;;;;9.68;3.25;;;16.10;99.90;;;;;;5052988;28;24890;-64
2023/07/03 05:20:55;;;;;;;17.13;4.28;;;16.00;99.90;;;;;;5031969;28;20208;-65
2023/07/03 05:23:23;;;;;;;14.23;3.97;;;16.20;99.90;;;;;;5056671;28;20240;-64
2023/07/03 05:25:50;;;;;;;15.30;4.43;;;16.20;99.90;;;;;;5021362;28;20197;-64
2023/07/03 05:28:17;;;;;;;12.02;4.15;;;16.20;99.90;;;;;;5027881;28;20208;-64
2023/07/03 05:30:43;;;;;;;10.68;4.07;;;16.20;99.90;;;;;;5046828;28;20197;-65
2023/07/03 05:33:11;;;;;;;18.55;3.72;;;16.20;99.90;;;;;;5044620;28;20591;-64
2023/07/03 05:35:38;;;;;;;12.65;4.85;;;16.20;99.90;;;;;;5047055;28;20866;-65
2023/07/03 05:38:05;;;;;;;16.55;4.30;;;16.20;99.90;;;;;;5040126;28;20274;-64
2023/07/03 05:40:33;;;;;;;11.82;3.88;;;16.30;99.90;;;;;;5041897;28;20489;-64
2023/07/03 05:43:00;;;;;;;12.57;4.10;;;16.30;99.90;;;;;;5019685;28;20298;-64
2023/07/03 05:45:27;;;;;;;18.73;4.20;;;16.30;99.90;;;;;;5051166;28;20196;-64
2023/07/03 05:47:54;;;;;;;14.50;4.30;;;16.30;99.90;;;;;;5056494;28;20643;-65
2023/07/03 05:50:21;;;;;;;8.57;3.88;;;16.30;99.90;;;;;;5038869;28;28134;-65
2023/07/03 05:52:48;;;;;;;14.48;3.83;;;16.30;99.90;;;;;;5041747;28;20574;-64
2023/07/03 05:55:15;;;;;;;10.85;3.05;;;16.30;99.90;;;;;;5043099;28;20206;-65
2023/07/03 05:57:43;;;;;;;17.35;3.67;;;16.40;99.90;;;;;;5032068;28;20716;-65
2023/07/03 06:00:13;;;;;;;12.32;3.38;;;16.40;99.90;;;;;;5055440;28;20649;-65
2023/07/03 06:02:41;;;;;;;13.57;3.53;;;16.40;99.90;;;;;;5057632;28;20196;-65
2023/07/03 06:05:08;;;;;;;10.75;3.75;;;16.50;99.90;;;;;;5056797;28;20791;-65
2023/07/03 06:07:35;;;;;;;9.70;3.22;;;16.50;99.90;;;;;;5044109;28;22488;-65
2023/07/03 06:10:03;;;;;;;12.48;3.15;;;16.60;99.90;;;;;;5044132;28;20196;-65
2023/07/03 06:12:30;;;;;;;11.02;3.10;;;16.50;99.90;;;;;;5024281;28;20833;-64
2023/07/03 06:14:59;;;;;;;12.25;3.63;;;16.50;99.90;;;;;;5063598;28;20254;-64
2023/07/03 06:17:28;;;;;;;12.70;3.45;;;16.40;99.90;;;;;;5045231;28;20422;-64
2023/07/03 06:19:55;;;;;;;11.60;3.28;;;16.40;99.90;;;;;;5038552;28;20212;-63
2023/07/03 06:22:22;;;;;;;11.70;3.38;;;16.40;99.90;;;;;;5027825;28;20683;-64
2023/07/03 06:24:49;;;;;;;12.57;3.83;;;16.50;99.90;;;;;;5031618;28;20856;-64
2023/07/03 06:27:16;;;;;;;11.20;3.03;;;16.40;99.90;;;;;;5044694;28;20227;-64
2023/07/03 06:29:43;;;;;;;12.20;3.22;;;16.50;99.90;;;;;;5036774;28;20230;-64
2023/07/03 06:32:12;;;;;;;15.90;3.35;;;16.50;99.90;;;;;;5056768;28;20204;-64
2023/07/03 06:34:39;;;;;;;11.15;3.70;;;16.60;99.90;;;;;;5053510;28;20216;-64
2023/07/03 06:37:06;;;;;;;10.70;3.47;;;16.60;99.90;;;;;;5049099;28;20547;-64
2023/07/03 06:39:33;;;;;;;12.25;3.38;;;16.60;99.90;;;;;;5042333;28;20201;-64
2023/07/03 06:42:00;;;;;;;11.13;3.15;;;16.70;99.90;;;;;;5055616;28;20197;-64
2023/07/03 06:44:28;;;;;;;14.18;4.18;;;16.70;99.90;;;;;;5026253;28;20223;-64
2023/07/03 06:46:54;;;;;;;11.20;3.13;;;16.80;99.90;;;;;;5065970;28;20192;-64
2023/07/03 06:49:24;;;;;;;12.07;2.97;;;16.90;99.90;;;;;;5052505;28;20195;-64
2023/07/03 06:51:51;;;;;;;11.93;3.22;;;16.90;99.90;;;;;;5042670;28;20740;-64
2023/07/03 06:54:18;;;;;;;6.53;2.25;;;16.90;99.90;;;;;;5041691;28;20219;-64
2023/07/03 06:56:45;;;;;;;8.27;2.80;;;16.80;99.90;;;;;;5056823;28;20220;-64
2023/07/03 06:59:12;;;;;;;12.40;3.17;;;16.60;99.90;;;;;;5033307;28;24271;-64
2023/07/03 07:01:41;;;;;;;11.57;2.85;;;16.60;99.90;;;;;;5032038;28;20752;-64
2023/07/03 07:04:08;;;;;;;14.68;3.28;;;16.50;99.90;;;;;;5059151;28;20834;-64
2023/07/03 07:06:36;;;;;;;13.50;2.88;;;16.40;99.90;;;;;;5056394;28;20222;-64
2023/07/03 07:09:04;;;;;;;9.57;3.00;;;16.40;99.90;;;;;;5042475;28;20235;-64
2023/07/03 07:11:33;;;;;;;8.07;3.20;;;16.60;99.90;;;;;;5033768;28;20301;-64
2023/07/03 07:14:02;;;;;;;7.50;2.65;;;16.60;99.90;;;;;;5062316;28;20206;-63
2023/07/03 07:16:31;;;;;;;6.53;2.60;;;16.70;99.90;;;;;;5024321;28;20719;-64
2023/07/03 07:19:01;;;;;;;8.38;2.72;;;16.80;99.90;;;;;;5063581;28;20394;-64
2023/07/03 07:21:29;;;;;;;7.53;2.08;;;16.90;99.90;;;;;;5043597;28;20245;-64
2023/07/03 07:23:59;;;;;;;9.57;2.70;;;17.00;99.90;;;;;;5063170;28;20239;-64
2023/07/03 07:26:30;;;;;;;9.65;2.72;;;17.10;99.90;;;;;;5034091;28;20196;-64
2023/07/03 07:28:57;;;;;;;6.78;1.90;;;17.10;99.90;;;;;;5063480;28;20581;-64
2023/07/03 07:31:26;;;;;;;6.72;2.30;;;17.00;99.90;;;;;;5032117;28;20701;-64
2023/07/03 07:33:53;;;;;;;8.30;2.10;;;17.00;99.90;;;;;;5055759;28;20216;-64
2023/07/03 07:36:21;;;;;;;9.68;2.00;;;17.00;99.90;;;;;;5047005;28;20189;-64
2023/07/03 07:38:49;;;;;;;10.15;2.17;;;16.90;99.90;;;;;;5057609;28;20201;-64
2023/07/03 07:41:17;;;;;;;7.40;2.17;;;16.90;99.90;;;;;;5046683;28;20197;-64
2023/07/03 07:43:44;;;;;;;10.48;2.80;;;16.90;99.90;;;;;;5056875;28;20315;-64
2023/07/03 07:46:11;;;;;;;6.07;1.88;;;17.00;99.90;;;;;;5057897;28;20570;-65
2023/07/03 07:48:38;;;;;;;9.82;2.38;;;17.10;99.90;;;;;;5050179;28;20215;-65
2023/07/03 07:51:08;;;;;;;10.35;2.30;;;17.20;99.90;;;;;;5060633;28;20666;-64
2023/07/03 07:53:35;;;;;;;3.65;1.90;;;17.30;99.90;;;;;;5061546;28;20445;-64
2023/07/03 07:56:02;;;;;;;5.10;1.70;;;17.30;99.90;;;;;;5054051;28;20680;-64
2023/07/03 07:58:30;;;;;;;8.52;2.00;;;17.20;99.90;;;;;;5046043;28;20205;-64
2023/07/03 08:00:57;;;;;;;6.95;2.08;;;17.30;99.90;;;;;;5059325;28;20203;-64
2023/07/03 08:03:24;;;;;;;7.85;2.03;;;17.40;99.90;;;;;;5036024;28;21483;-64
2023/07/03 08:05:51;;;;;;;8.98;2.33;;;17.30;99.90;;;;;;5056508;28;20233;-64
2023/07/03 08:08:18;;;;;;;7.00;1.80;;;17.20;99.90;;;;;;5057760;28;20208;-64
2023/07/03 08:10:52;;;;;;;6.70;2.35;;;17.00;99.90;;;;;;5045124;28;20416;-65
2023/07/03 08:13:19;;;;;;;11.82;2.60;;;16.90;99.90;;;;;;5039206;28;20264;-65
2023/07/03 08:15:47;;;;;;;4.28;2.05;;;16.70;99.90;;;;;;5050050;28;20833;-65
2023/07/03 08:18:15;;;;;;;9.13;2.33;;;16.60;99.90;;;;;;5036528;28;20208;-66
2023/07/03 08:20:42;;;;;;;9.65;2.60;;;16.60;99.90;;;;;;5054873;28;20216;-65
2023/07/03 08:23:08;;;;;;;15.20;2.50;;;16.60;99.90;;;;;;5059384;28;20239;-65
2023/07/03 08:25:35;;;;;;;6.50;2.35;;;16.60;99.90;;;;;;5048850;28;20239;-65
2023/07/03 08:28:02;;;;;;;11.75;2.58;;;16.80;99.90;;;;;;5034825;28;20952;-65
2023/07/03 08:30:29;;;;;;;4.47;2.08;;;17.00;99.90;;;;;;5034872;28;20541;-65
2023/07/03 08:32:57;;;;;;;7.72;2.30;;;17.10;99.90;;;;;;5030401;28;20348;-65
2023/07/03 08:35:24;;;;;;;8.30;2.35;;;17.20;99.90;;;;;;5044055;28;21277;-65
2023/07/03 08:37:52;;;;;;;7.90;2.30;;;17.30;99.90;;;;;;5057432;28;20200;-65
2023/07/03 08:40:21;;;;;;;7.00;1.98;;;17.30;99.90;;;;;;5047137;28;20579;-65
2023/07/03 08:42:53;;;;;;;8.10;2.33;;;17.40;99.90;;;;;;5049643;28;20208;-65
2023/07/03 08:45:22;;;;;;;10.02;2.50;;;17.30;99.90;;;;;;5035478;28;20311;-65
2023/07/03 08:47:52;;;;;;;9.43;2.03;;;17.30;99.90;;;;;;5035408;28;20215;-65
2023/07/03 08:50:23;;;;;;;4.40;2.20;;;17.30;99.90;;;;;;5057106;28;20689;-65
2023/07/03 08:52:56;;;;;;;4.90;1.83;;;17.30;99.90;;;;;;5052356;28;20237;-64
2023/07/03 08:55:28;;;;;;;4.88;2.22;;;17.00;99.90;;;;;;5040877;28;20223;-65
2023/07/03 08:57:55;;;;;;;5.93;1.90;;;17.00;99.90;;;;;;5045660;28;20216;-65
2023/07/03 09:00:22;;;;;;;4.78;1.70;;;16.90;99.90;;;;;;5019520;28;20325;-65
2023/07/03 09:02:56;;;;;;;7.85;1.85;;;16.80;99.90;;;;;;5022915;28;20585;-65
2023/07/03 09:05:34;;;;;;;12.27;2.10;;;16.50;99.90;;;;;;5034354;28;21084;-65
2023/07/03 09:08:02;;;;;;;9.85;2.10;;;16.10;99.90;;;;;;5054035;28;20227;-64
2023/07/03 09:10:34;;;;;;;3.10;1.65;;;16.00;99.90;;;;;;5059725;28;20204;-64
2023/07/03 09:13:07;;;;;;;6.05;1.95;;;16.00;99.90;;;;;;5042741;28;20221;-64
2023/07/03 09:15:38;;;;;;;2.55;1.50;;;16.00;99.90;;;;;;5032889;28;20486;-64
2023/07/03 09:18:12;;;;;;;4.65;1.55;;;16.00;99.90;;;;;;5006904;28;20247;-64
2023/07/03 09:20:42;;;;;;;5.20;1.90;;;16.00;99.90;;;;;;5020548;28;20258;-65
2023/07/03 09:23:17;;;;;;;8.40;1.83;;;15.90;99.90;;;;;;5050167;28;20369;-65
2023/07/03 09:25:48;;;;;;;8.10;2.85;;;15.90;99.90;;;;;;5051012;28;20669;-65
2023/07/03 09:28:15;;;;;;;3.60;1.67;;;15.80;99.90;;;;;;5029501;28;20216;-64
2023/07/03 09:30:42;;;;;;;3.70;1.77;;;15.90;99.90;;;;;;5037196;28;20326;-65
2023/07/03 09:33:09;;;;;;;6.95;2.08;;;15.90;99.90;;;;;;5046858;28;20224;-65
2023/07/03 09:35:39;;;;;;;4.53;1.75;;;15.80;99.90;;;;;;5033852;28;20697;-65
2023/07/03 09:38:12;;;;;;;9.75;1.88;;;15.90;99.90;;;;;;5059589;28;20275;-64
2023/07/03 09:40:43;;;;;;;3.92;2.20;;;15.90;99.90;;;;;;5034990;28;20224;-65
2023/07/03 09:43:15;;;;;;;5.47;1.80;;;15.90;99.90;;;;;;5046393;28;20204;-65
2023/07/03 09:45:42;;;;;;;4.88;1.67;;;15.90;99.90;;;;;;5025502;28;20878;-65
2023/07/03 09:48:18;;;;;;;6.32;2.13;;;16.20;99.90;;;;;;5038996;28;20206;-65
2023/07/03 09:50:45;;;;;;;5.93;2.22;;;16.40;99.90;;;;;;5019032;28;20653;-64
2023/07/03 09:53:18;;;;;;;7.35;2.28;;;16.60;99.90;;;;;;5052000;28;20551;-64
2023/07/03 09:55:45;;;;;;;7.13;2.40;;;16.80;99.90;;;;;;5045715;28;20484;-65
2023/07/03 09:58:14;;;;;;;7.10;2.30;;;16.40;99.90;;;;;;5040335;28;25031;-65
2023/07/03 10:00:49;;;;;;;6.95;2.38;;;16.90;99.90;;;;;;5030901;28;20204;-65
2023/07/03 10:03:26;;;;;;;7.30;2.53;;;16.70;99.90;;;;;;5049687;28;20226;-64
2023/07/03 10:05:54;;;;;;;8.80;2.17;;;16.40;99.90;;;;;;5032244;28;20429;-65
2023/07/03 10:08:26;;;;;;;11.30;2.45;;;16.50;99.90;;;;;;5055001;28;20192;-65
2023/07/03 10:10:55;;;;;;;7.38;2.00;;;16.30;99.90;;;;;;5061908;28;20592;-65
2023/07/03 10:13:27;;;;;;;3.38;1.70;;;16.30;99.90;;;;;;5053577;28;20196;-65
2023/07/03 10:15:55;;;;;;;3.65;1.80;;;15.90;99.90;;;;;;5045195;28;20495;-65
2023/07/03 10:18:26;;;;;;;3.85;1.52;;;15.80;99.90;;;;;;5050661;28;20213;-65
2023/07/03 10:20:53;;;;;;;5.10;1.40;;;15.70;99.90;;;;;;5032775;28;20828;-65
2023/07/03 10:23:26;;;;;;;2.70;0.88;;;15.50;99.90;;;;;;5061418;28;20224;-65
2023/07/03 10:25:58;;;;;;;2.45;1.05;;;15.40;99.90;;;;;;5054542;28;20235;-65
2023/07/03 10:28:30;;;;;;;6.50;1.20;;;15.50;99.90;;;;;;5052235;28;20224;-65
2023/07/03 10:31:00;;;;;;;2.75;1.10;;;15.50;99.90;;;;;;5057864;28;20201;-65
2023/07/03 10:33:32;;;;;;;2.00;1.17;;;15.50;99.90;;;;;;5048657;28;20689;-65
2023/07/03 10:36:00;;;;;;;2.03;1.33;;;15.60;99.90;;;;;;5050448;28;20200;-65
2023/07/03 10:38:35;;;;;;;3.60;1.55;;;15.60;99.90;;;;;;5035873;28;20213;-65
2023/07/03 10:41:07;;;;;;;2.80;1.50;;;15.70;99.90;;;;;;5062041;28;20746;-65
2023/07/03 10:43:39;;;;;;;4.32;1.67;;;16.70;99.90;;;;;;5040884;28;20514;-65
2023/07/03 10:46:07;;;;;;;7.20;1.65;;;15.90;99.90;;;;;;5048474;28;20228;-65
2023/07/03 10:48:34;;;;;;;2.65;1.33;;;16.10;99.90;;;;;;5010968;28;20375;-65
2023/07/03 10:51:12;;;;;;;6.75;1.70;;;16.10;99.90;;;;;;5043626;28;21539;-65
2023/07/03 10:53:46;;;;;;;3.25;1.45;;;16.20;99.90;;;;;;5029226;28;20748;-65
2023/07/03 10:56:19;;;;;;;2.35;1.13;;;16.40;99.90;;;;;;5026613;28;20300;-65
2023/07/03 10:58:50;;;;;;;3.15;1.50;;;16.30;99.90;;;;;;5053036;28;20259;-65
2023/07/03 11:01:24;;;;;;;3.42;1.40;;;16.40;99.90;;;;;;5044611;28;20211;-65
2023/07/03 11:03:57;;;;;;;2.97;1.58;;;16.60;99.90;;;;;;5021771;28;20312;-66
2023/07/03 11:06:33;;;;;;;3.92;1.33;;;16.80;99.90;;;;;;5041610;28;20231;-65
2023/07/03 11:09:08;;;;;;;2.65;1.13;;;17.20;99.90;;;;;;5032287;28;20212;-65
2023/07/03 11:12:00;;;;;;;2.55;1.42;;;17.20;99.90;;;;;;5050117;28;20981;-65
2023/07/03 11:14:35;;;;;;;3.00;1.20;;;17.30;99.90;;;;;;5062331;28;20349;-65
2023/07/03 11:17:09;;;;;;;2.40;0.90;;;17.40;99.90;;;;;;5058358;28;20199;-65
2023/07/03 11:19:45;;;;;;;5.43;1.17;;;17.30;99.90;;;;;;5035553;28;20586;-65
2023/07/03 11:22:16;;;;;;;4.50;1.20;;;17.20;99.90;;;;;;5032197;28;20526;-65
2023/07/03 11:24:59;;;;;;;6.70;1.40;;;17.20;99.90;;;;;;5053550;28;20228;-65
2023/07/03 11:27:31;;;;;;;6.10;1.48;;;17.20;99.90;;;;;;5047538;28;20465;-65
2023/07/03 11:29:58;;;;;;;4.47;1.17;;;17.20;99.90;;;;;;5061532;28;20200;-65
2023/07/03 11:32:26;;;;;;;2.10;1.05;;;17.10;99.90;;;;;;5038260;28;20468;-65
2023/07/03 11:34:53;;;;;;;3.50;0.82;;;16.80;99.90;;;;;;5027091;28;20232;-65
2023/07/03 11:37:34;;;;;;;1.60;1.10;;;16.80;99.90;;;;;;5030193;28;20201;-65
2023/07/03 11:40:25;;;;;;;0.75;0.75;;;16.90;99.90;;;;;;5033963;28;20226;-65
2023/07/03 11:43:01;;;;;;;1.23;0.82;;;17.00;99.90;;;;;;5047179;28;20223;-65
2023/07/03 11:45:29;;;;;;;2.63;0.98;;;17.20;99.90;;;;;;5051125;28;20973;-65
2023/07/03 11:47:56;;;;;;;1.00;0.70;;;17.20;99.90;;;;;;5059401;28;20231;-64
2023/07/03 11:50:31;;;;;;;3.83;1.20;;;17.40;99.90;;;;;;5048923;28;20373;-65
2023/07/03 11:52:58;;;;;;;3.95;1.45;;;17.60;99.90;;;;;;5046406;28;20215;-65
2023/07/03 11:55:39;;;;;;;1.90;1.08;;;17.70;99.90;;;;;;5037524;28;20320;-65
2023/07/03 11:58:06;;;;;;;3.28;1.40;;;17.90;99.90;;;;;;5058351;28;20200;-64
2023/07/03 12:00:34;;;;;;;5.25;1.45;;;18.00;99.90;;;;;;5060616;28;20415;-65
2023/07/03 12:03:06;;;;;;;4.47;1.52;;;18.10;99.90;;;;;;5063210;28;20507;-64
2023/07/03 12:05:54;;;;;;;1.77;1.08;;;18.00;99.90;;;;;;5047624;28;20231;-65
2023/07/03 12:08:44;;;;;;;4.90;1.38;;;17.90;99.90;;;;;;5041518;28;20200;-64
2023/07/03 12:11:14;;;;;;;3.22;1.45;;;17.70;99.90;;;;;;5061196;28;20249;-64
2023/07/03 12:13:56;;;;;;;5.25;1.45;;;17.60;99.90;;;;;;5057888;28;20203;-65
2023/07/03 12:16:30;;;;;;;3.50;1.27;;;17.50;99.90;;;;;;5054551;28;20214;-65
2023/07/03 12:19:05;;;;;;;5.57;1.70;;;17.40;99.90;;;;;;5053891;28;20542;-65
2023/07/03 12:21:39;;;;;;;2.88;1.10;;;17.20;99.90;;;;;;5049284;28;20208;-65
2023/07/03 12:24:19;;;;;;;2.42;1.23;;;16.80;99.90;;;;;;5038335;28;20236;-65
2023/07/03 12:27:00;;;;;;;2.90;1.02;;;16.40;99.90;;;;;;5054822;28;20227;-65
2023/07/03 12:29:28;;;;;;;3.40;1.40;;;16.20;99.90;;;;;;5055011;28;20196;-65
2023/07/03 12:31:56;;;;;;;4.15;1.52;;;16.10;99.90;;;;;;5055810;28;20676;-65
2023/07/03 12:34:27;;;;;;;5.43;1.67;;;16.10;99.90;;;;;;5054123;28;20850;-65
2023/07/03 12:37:00;;;;;;;4.93;1.58;;;16.10;99.90;;;;;;5044025;28;20780;-65
2023/07/03 12:39:27;;;;;;;6.05;1.70;;;16.00;99.90;;;;;;5060530;28;20221;-65
2023/07/03 12:42:05;;;;;;;3.58;1.50;;;16.00;99.90;;;;;;5044000;28;20315;-65
2023/07/03 12:44:32;;;;;;;4.35;1.42;;;16.00;99.90;;;;;;5057076;28;20225;-65
2023/07/03 12:47:08;;;;;;;2.67;1.08;;;16.00;99.90;;;;;;5054603;28;20422;-65
2023/07/03 12:49:48;;;;;;;2.15;1.20;;;16.00;99.90;;;;;;5054201;28;20677;-65
2023/07/03 12:52:15;;;;;;;6.70;1.70;;;15.90;99.90;;;;;;5044929;28;20223;-65
2023/07/03 12:54:42;;;;;;;2.85;1.23;;;15.90;99.90;;;;;;5056975;28;20211;-64